createdAt,value
2023-05-24T00:00:00.909Z,70.67
2023-05-24T00:02:32.889Z,76.62
2023-05-24T00:05:02.174Z,77.75
2023-05-24T00:07:32.312Z,76.49
2023-05-24T00:10:00.322Z,76.86
2023-05-24T00:12:28.745Z,65.95
2023-05-24T00:14:56.858Z,71.38
2023-05-24T00:17:25.221Z,79.18
2023-05-24T00:19:53.734Z,78.35
2023-05-24T00:22:21.867Z,80.62
2023-05-24T00:24:49.873Z,82.38
2023-05-24T00:27:18.215Z,83.61
2023-05-24T00:29:46.293Z,81.57
2023-05-24T00:32:14.452Z,81.41
2023-05-24T00:34:42.898Z,82.25
2023-05-24T00:37:13.380Z,84.14
2023-05-24T00:39:41.809Z,87.05
2023-05-24T00:42:11.283Z,88.96
2023-05-24T00:44:39.367Z,86.66
2023-05-24T00:47:08.061Z,85.60
2023-05-24T00:49:36.611Z,87.19
2023-05-24T00:52:05.563Z,88.19
2023-05-24T00:54:33.685Z,84.56
2023-05-24T00:57:02.981Z,81.52
2023-05-24T00:59:31.434Z,86.10
2023-05-24T01:01:59.556Z,86.97
2023-05-24T01:04:28.569Z,87.41
2023-05-24T01:07:02.371Z,85.07
2023-05-24T01:09:55.643Z,88.53
2023-05-24T01:12:37.293Z,85.87
2023-05-24T01:15:11.818Z,90.47
2023-05-24T01:17:53.984Z,87.31
2023-05-24T01:20:25.200Z,89.25
2023-05-24T01:23:06.363Z,86.26
2023-05-24T01:25:53.106Z,84.12
2023-05-24T01:28:22.770Z,75.16
2023-05-24T01:30:56.405Z,85.63
2023-05-24T01:33:26.256Z,83.66
2023-05-24T01:35:54.680Z,81.85
2023-05-24T01:38:22.687Z,85.98
2023-05-24T01:40:57.009Z,85.05
2023-05-24T01:43:31.733Z,86.43
2023-05-24T01:46:25.965Z,83.76
2023-05-24T01:49:22.886Z,87.39
2023-05-24T01:51:59.952Z,87.99
2023-05-24T01:54:34.402Z,88.09
2023-05-24T01:57:07.633Z,87.76
2023-05-24T01:59:40.456Z,86.59
2023-05-24T02:02:08.626Z,87.49
2023-05-24T02:04:37.428Z,87.66
2023-05-24T02:07:05.669Z,87.32
2023-05-24T02:09:33.860Z,87.43
2023-05-24T02:12:02.678Z,86.86
2023-05-24T02:14:30.892Z,87.42
2023-05-24T02:17:01.145Z,86.21
2023-05-24T02:19:29.819Z,85.29
2023-05-24T02:21:57.922Z,83.25
2023-05-24T02:24:25.999Z,87.68
2023-05-24T02:26:56.354Z,84.20
2023-05-24T02:29:25.780Z,70.65
2023-05-24T02:31:56.804Z,84.69
2023-05-24T02:34:25.428Z,85.54
2023-05-24T02:36:56.990Z,85.71
2023-05-24T02:39:25.675Z,78.11
2023-05-24T02:41:53.780Z,80.96
2023-05-24T02:44:21.924Z,77.11
2023-05-24T02:46:50.691Z,77.23
2023-05-24T02:49:18.760Z,80.76
2023-05-24T02:51:47.018Z,78.45
2023-05-24T02:54:18.074Z,79.86
2023-05-24T02:56:46.185Z,78.62
2023-05-24T02:59:15.401Z,82.48
2023-05-24T03:01:43.981Z,77.30
2023-05-24T03:04:12.853Z,73.74
2023-05-24T03:06:41.318Z,83.75
2023-05-24T03:09:09.724Z,75.97
2023-05-24T03:11:37.743Z,74.52
2023-05-24T03:14:06.959Z,71.27
2023-05-24T03:16:35.544Z,82.28
2023-05-24T03:19:08.420Z,69.50
2023-05-24T03:21:38.728Z,69.42
2023-05-24T03:24:06.990Z,71.29
2023-05-24T03:26:35.638Z,67.64
2023-05-24T03:29:04.011Z,65.83
2023-05-24T03:31:32.618Z,64.00
2023-05-24T03:34:01.034Z,67.62
2023-05-24T03:36:29.980Z,67.86
2023-05-24T03:38:59.419Z,67.75
2023-05-24T03:41:28.578Z,65.97
2023-05-24T03:43:58.862Z,61.39
2023-05-24T03:46:27.618Z,60.78
2023-05-24T03:48:55.987Z,65.72
2023-05-24T03:51:29.856Z,64.25
2023-05-24T03:53:58.086Z,67.09
2023-05-24T03:56:27.650Z,63.25
2023-05-24T03:58:58.134Z,63.88
2023-05-24T04:01:34.020Z,62.40
2023-05-24T04:04:04.665Z,73.02
2023-05-24T04:06:32.842Z,68.21
2023-05-24T04:09:13.300Z,71.11
2023-05-24T04:11:42.073Z,66.30
2023-05-24T04:14:13.150Z,65.75
2023-05-24T04:16:54.115Z,63.97
2023-05-24T04:19:22.330Z,69.37
2023-05-24T04:21:50.986Z,62.41
2023-05-24T04:24:19.034Z,60.34
2023-05-24T04:26:48.113Z,66.05
2023-05-24T04:29:16.927Z,61.59
2023-05-24T04:31:45.548Z,63.48
2023-05-24T04:34:14.747Z,61.50
2023-05-24T04:36:43.363Z,66.48
2023-05-24T04:39:12.269Z,66.29
2023-05-24T04:41:40.221Z,67.33
2023-05-24T04:44:08.679Z,58.90
2023-05-24T04:46:36.806Z,69.83
2023-05-24T04:49:06.047Z,63.13
2023-05-24T04:51:34.898Z,61.39
2023-05-24T04:54:09.266Z,64.78
2023-05-24T04:56:40.206Z,67.69
2023-05-24T04:59:08.866Z,72.43
2023-05-24T05:01:37.588Z,70.31
2023-05-24T05:04:05.925Z,74.72
2023-05-24T05:06:39.094Z,75.18
2023-05-24T05:09:13.602Z,75.21
2023-05-24T05:11:42.012Z,75.21
2023-05-24T05:14:22.246Z,74.62
2023-05-24T05:16:50.261Z,73.96
2023-05-24T05:19:18.333Z,73.68
2023-05-24T05:21:46.807Z,64.38
2023-05-24T05:24:16.775Z,69.69
2023-05-24T05:26:56.492Z,68.41
2023-05-24T05:29:24.927Z,67.74
2023-05-24T05:31:53.111Z,57.78
2023-05-24T05:34:33.488Z,63.11
2023-05-24T05:37:02.082Z,60.55
2023-05-24T05:39:32.305Z,66.53
2023-05-24T05:42:01.480Z,64.73
2023-05-24T05:44:29.998Z,62.56
2023-05-24T05:46:57.933Z,55.38
2023-05-24T05:49:25.749Z,56.48
2023-05-24T05:52:18.546Z,60.72
2023-05-24T05:54:59.640Z,55.83
2023-05-24T05:57:28.030Z,53.14
2023-05-24T05:59:56.116Z,57.92
2023-05-24T06:02:24.229Z,54.26
2023-05-24T06:04:52.780Z,53.34
2023-05-24T06:07:21.029Z,51.98
2023-05-24T06:09:48.981Z,54.66
2023-05-24T06:12:17.950Z,52.79
2023-05-24T06:14:48.597Z,54.72
2023-05-24T06:17:17.112Z,56.19
2023-05-24T06:19:46.036Z,54.88
2023-05-24T06:22:27.926Z,56.04
2023-05-24T06:24:56.579Z,56.30
2023-05-24T06:27:24.652Z,55.00
2023-05-24T06:29:52.770Z,52.18
2023-05-24T06:32:21.496Z,54.48
2023-05-24T06:34:49.515Z,54.88
2023-05-24T06:37:31.599Z,48.91
2023-05-24T06:40:00.153Z,49.74
2023-05-24T06:42:40.727Z,50.90
2023-05-24T06:45:09.770Z,47.46
2023-05-24T06:48:08.402Z,47.59
2023-05-24T06:50:39.158Z,47.74
2023-05-24T06:53:09.183Z,50.45
2023-05-24T06:55:37.982Z,47.80
2023-05-24T06:58:07.540Z,46.96
2023-05-24T07:00:47.478Z,47.52
2023-05-24T07:03:16.298Z,48.63
2023-05-24T07:05:44.342Z,48.56
2023-05-24T07:08:12.408Z,49.14
2023-05-24T07:10:41.508Z,49.78
2023-05-24T07:13:09.863Z,48.41
2023-05-24T07:15:37.791Z,48.50
2023-05-24T07:18:06.366Z,48.35
2023-05-24T07:20:44.558Z,45.86
2023-05-24T07:23:13.174Z,45.93
2023-05-24T07:25:41.025Z,47.42
2023-05-24T07:28:09.100Z,45.60
2023-05-24T07:30:39.306Z,47.68
2023-05-24T07:33:07.577Z,44.89
2023-05-24T07:35:35.655Z,42.81
2023-05-24T07:38:04.095Z,41.62
2023-05-24T07:40:32.573Z,46.24
2023-05-24T07:43:00.644Z,46.63
2023-05-24T07:45:29.162Z,45.25
2023-05-24T07:47:57.371Z,45.43
2023-05-24T07:50:25.630Z,43.16
2023-05-24T07:52:54.008Z,43.49
2023-05-24T07:55:22.152Z,44.25
2023-05-24T07:57:50.240Z,45.09
2023-05-24T08:00:20.580Z,43.31
2023-05-24T08:02:49.339Z,41.14
2023-05-24T08:05:18.178Z,43.90
2023-05-24T08:07:46.163Z,41.73
2023-05-24T08:10:14.667Z,40.94
2023-05-24T08:12:43.213Z,39.97
2023-05-24T08:15:12.230Z,36.29
2023-05-24T08:17:40.754Z,39.77
2023-05-24T08:20:17.192Z,38.05
2023-05-24T08:22:45.717Z,34.20
2023-05-24T08:25:14.292Z,37.17
2023-05-24T08:27:42.848Z,33.30
2023-05-24T08:30:11.663Z,40.73
2023-05-24T08:32:39.849Z,35.72
2023-05-24T08:35:20.077Z,38.42
2023-05-24T08:37:49.926Z,39.50
2023-05-24T08:40:18.614Z,39.03
2023-05-24T08:42:50.068Z,38.58
2023-05-24T08:45:19.553Z,42.19
2023-05-24T08:47:49.151Z,35.78
2023-05-24T08:50:18.656Z,37.73
2023-05-24T08:52:47.693Z,32.34
2023-05-24T08:55:16.531Z,34.40
2023-05-24T08:57:46.493Z,39.20
2023-05-24T09:00:15.504Z,32.44
2023-05-24T09:02:48.690Z,34.13
2023-05-24T09:05:17.767Z,35.68
2023-05-24T09:07:46.915Z,34.38
2023-05-24T09:10:16.066Z,30.33
2023-05-24T09:12:49.161Z,32.00
2023-05-24T09:15:17.337Z,37.84
2023-05-24T09:17:46.499Z,41.73
2023-05-24T09:20:14.868Z,37.75
2023-05-24T09:22:44.337Z,38.54
2023-05-24T09:25:15.350Z,39.40
2023-05-24T09:27:49.697Z,36.78
2023-05-24T09:30:18.373Z,42.19
2023-05-24T09:32:59.982Z,39.62
2023-05-24T09:35:29.018Z,34.38
2023-05-24T09:37:58.063Z,36.16
2023-05-24T09:40:27.256Z,38.33
2023-05-24T09:43:06.332Z,35.09
2023-05-24T09:45:39.577Z,34.38
2023-05-24T09:48:12.935Z,27.98
2023-05-24T09:50:42.153Z,34.99
2023-05-24T09:53:10.765Z,32.66
2023-05-24T09:55:39.000Z,34.31
2023-05-24T09:58:09.084Z,33.54
2023-05-24T10:00:41.753Z,37.91
2023-05-24T10:03:13.890Z,31.59
2023-05-24T10:05:45.190Z,37.53
2023-05-24T10:08:14.837Z,32.73
2023-05-24T10:10:44.118Z,33.01
2023-05-24T10:13:13.594Z,38.06
2023-05-24T10:15:42.785Z,28.41
2023-05-24T10:18:13.903Z,36.08
2023-05-24T10:20:44.714Z,32.17
2023-05-24T10:23:21.433Z,33.82
2023-05-24T10:26:00.297Z,33.43
2023-05-24T10:28:28.875Z,35.18
2023-05-24T10:31:00.180Z,35.86
2023-05-24T10:33:29.152Z,35.93
2023-05-24T10:35:58.082Z,38.74
2023-05-24T10:38:26.268Z,33.78
2023-05-24T10:40:54.505Z,35.28
2023-05-24T10:43:22.961Z,34.15
2023-05-24T10:45:51.694Z,35.37
2023-05-24T10:48:29.334Z,35.38
2023-05-24T10:50:57.796Z,36.46
2023-05-24T10:53:41.284Z,40.28
2023-05-24T10:56:10.131Z,42.17
2023-05-24T10:58:58.304Z,43.49
2023-05-24T11:01:28.411Z,43.55
2023-05-24T11:04:16.137Z,40.96
2023-05-24T11:07:03.986Z,49.72
2023-05-24T11:09:34.093Z,50.21
2023-05-24T11:12:07.947Z,38.65
2023-05-24T11:14:40.345Z,43.04
2023-05-24T11:17:09.134Z,43.67
2023-05-24T11:19:38.797Z,45.27
2023-05-24T11:22:10.123Z,38.52
2023-05-24T11:24:38.690Z,48.77
2023-05-24T11:27:08.324Z,42.29
2023-05-24T11:29:45.262Z,42.43
2023-05-24T11:32:19.111Z,38.56
2023-05-24T11:34:48.111Z,35.87
2023-05-24T11:37:18.271Z,43.02
2023-05-24T11:39:54.328Z,40.20
2023-05-24T11:42:24.329Z,44.20
2023-05-24T11:44:53.852Z,40.79
2023-05-24T11:47:22.981Z,38.05
2023-05-24T11:49:52.355Z,37.61
2023-05-24T11:52:20.952Z,44.61
2023-05-24T11:54:50.194Z,48.01
2023-05-24T11:57:22.236Z,44.43
2023-05-24T11:59:50.736Z,45.29
2023-05-24T12:02:19.996Z,43.08
2023-05-24T12:04:48.512Z,41.82
2023-05-24T12:07:18.209Z,46.81
2023-05-24T12:09:47.159Z,44.25
2023-05-24T12:12:16.380Z,44.79
2023-05-24T12:14:44.460Z,47.31
2023-05-24T12:17:18.395Z,41.08
2023-05-24T12:19:51.335Z,44.31
2023-05-24T12:22:19.516Z,44.78
2023-05-24T12:24:51.349Z,44.00
2023-05-24T12:27:19.512Z,40.50
2023-05-24T12:29:49.373Z,44.48
2023-05-24T12:32:18.108Z,43.56
2023-05-24T12:34:46.308Z,43.60
2023-05-24T12:37:15.592Z,44.39
2023-05-24T12:39:44.669Z,43.98
2023-05-24T12:42:14.121Z,44.14
2023-05-24T12:44:43.197Z,43.54
2023-05-24T12:47:12.052Z,42.72
2023-05-24T12:49:40.295Z,42.92
2023-05-24T12:52:09.413Z,44.22
2023-05-24T12:54:37.585Z,44.96
2023-05-24T12:57:05.960Z,41.99
2023-05-24T12:59:34.543Z,43.08
2023-05-24T13:02:02.757Z,42.11
2023-05-24T13:04:34.089Z,41.19
2023-05-24T13:07:03.565Z,38.75
2023-05-24T13:09:31.939Z,37.11
2023-05-24T13:12:03.378Z,33.75
2023-05-24T13:14:31.836Z,30.74
2023-05-24T13:17:00.072Z,30.14
2023-05-24T13:19:28.354Z,31.92
2023-05-24T13:21:56.875Z,34.06
2023-05-24T13:24:25.085Z,34.89
2023-05-24T13:26:54.901Z,36.33
2023-05-24T13:31:54.603Z,36.53
2023-05-24T13:34:26.609Z,37.18
2023-05-24T13:36:56.559Z,38.63
2023-05-24T13:39:25.237Z,40.47
2023-05-24T13:41:57.006Z,41.64
2023-05-24T13:44:25.730Z,41.44
2023-05-24T13:46:54.608Z,44.21
2023-05-24T13:49:22.928Z,43.83
2023-05-24T13:51:54.888Z,45.30
2023-05-24T13:54:25.018Z,46.15
2023-05-24T13:56:58.044Z,46.03
2023-05-24T13:59:27.507Z,48.87
2023-05-24T14:01:56.533Z,45.59
2023-05-24T14:04:25.097Z,45.17
2023-05-24T14:06:53.115Z,47.31
2023-05-24T14:09:21.779Z,47.79
2023-05-24T14:11:50.328Z,46.81
2023-05-24T14:16:52.439Z,47.40
2023-05-24T14:19:21.328Z,45.30
2023-05-24T14:21:49.285Z,46.55
2023-05-24T14:24:17.583Z,44.85
2023-05-24T14:26:47.942Z,44.84
2023-05-24T14:29:16.014Z,45.31
2023-05-24T14:31:44.357Z,47.42
2023-05-24T14:34:12.859Z,48.80
2023-05-24T14:36:42.181Z,50.37
2023-05-24T14:39:10.553Z,51.50
2023-05-24T14:41:39.064Z,50.60
2023-05-24T14:44:07.152Z,48.91
2023-05-24T14:46:35.407Z,52.82
2023-05-24T14:49:05.128Z,52.33
2023-05-24T14:51:33.169Z,53.51
2023-05-24T14:54:01.021Z,53.79
2023-05-24T14:56:29.630Z,55.70
2023-05-24T14:58:59.037Z,54.84
2023-05-24T15:01:27.171Z,54.27
2023-05-24T15:03:55.744Z,53.83
2023-05-24T15:06:23.829Z,54.57
2023-05-24T15:08:52.679Z,54.55
2023-05-24T15:11:21.342Z,55.68
2023-05-24T15:13:49.514Z,55.88
2023-05-24T15:16:17.541Z,56.70
2023-05-24T15:18:46.013Z,54.81
2023-05-24T15:21:14.176Z,55.33
2023-05-24T15:23:42.775Z,55.50
2023-05-24T15:26:11.529Z,56.67
2023-05-24T15:28:39.511Z,56.28
2023-05-24T15:31:07.698Z,56.80
2023-05-24T15:33:37.697Z,58.47
2023-05-24T15:36:06.021Z,58.71
2023-05-24T15:38:35.055Z,55.64
2023-05-24T15:41:04.245Z,54.79
2023-05-24T15:43:32.310Z,53.87
2023-05-24T15:46:00.304Z,53.82
2023-05-24T15:48:28.635Z,52.94
2023-05-24T15:53:27.697Z,52.53
2023-05-24T15:55:57.783Z,53.61
2023-05-24T15:58:26.091Z,53.60
2023-05-24T16:00:54.824Z,54.38
2023-05-24T16:03:23.481Z,55.01
2023-05-24T16:05:51.941Z,55.37
2023-05-24T16:08:20.120Z,55.93
2023-05-24T16:10:49.513Z,55.23
2023-05-24T16:13:17.613Z,55.44
2023-05-24T16:15:52.091Z,55.04
2023-05-24T16:18:23.360Z,55.71
2023-05-24T16:20:52.313Z,56.51
2023-05-24T16:23:23.426Z,56.88
2023-05-24T16:25:52.041Z,55.20
2023-05-24T16:28:25.148Z,54.48
2023-05-24T16:30:56.336Z,55.70
2023-05-24T16:33:25.593Z,56.45
2023-05-24T16:36:05.701Z,56.97
2023-05-24T16:38:34.184Z,56.80
2023-05-24T16:41:02.433Z,56.94
2023-05-24T16:43:30.854Z,58.45
2023-05-24T16:51:31.365Z,60.40
2023-05-24T16:53:59.464Z,57.55
2023-05-24T16:56:27.645Z,56.04
2023-05-24T16:58:55.933Z,57.82
2023-05-24T17:01:24.311Z,57.72
2023-05-24T17:03:52.396Z,55.64
2023-05-24T17:06:20.880Z,56.02
2023-05-24T17:08:49.083Z,57.98
2023-05-24T17:11:18.735Z,60.75
2023-05-24T17:13:48.221Z,60.91
2023-05-24T17:16:16.581Z,61.93
2023-05-24T17:18:44.677Z,60.95
2023-05-24T17:21:17.624Z,61.28
2023-05-24T17:23:45.499Z,61.32
2023-05-24T17:26:15.474Z,57.56
2023-05-24T17:28:44.956Z,58.93
2023-05-24T17:31:17.726Z,61.97
2023-05-24T17:33:46.185Z,61.19
2023-05-24T17:36:14.520Z,61.94
2023-05-24T17:38:42.891Z,64.61
2023-05-24T17:41:13.995Z,64.98
2023-05-24T17:43:42.584Z,66.16
2023-05-24T17:48:57.561Z,65.65
2023-05-24T17:51:25.669Z,66.35
2023-05-24T17:56:39.392Z,65.83
2023-05-24T17:59:07.882Z,66.46
2023-05-24T18:01:36.760Z,65.74
2023-05-24T18:04:06.968Z,64.99
2023-05-24T18:06:37.988Z,65.35
2023-05-24T18:11:52.012Z,68.94
2023-05-24T18:14:39.130Z,65.68
2023-05-24T18:17:07.425Z,65.69
2023-05-24T18:19:36.245Z,64.32
2023-05-24T18:22:16.526Z,73.31
2023-05-24T18:24:57.121Z,71.91
2023-05-24T18:27:27.074Z,67.47
2023-05-24T18:30:08.355Z,73.41
2023-05-24T18:32:37.672Z,70.48
2023-05-24T18:35:09.583Z,68.94
2023-05-24T18:37:37.586Z,66.27
2023-05-24T18:40:05.912Z,64.52
2023-05-24T18:42:34.310Z,66.79
2023-05-24T18:45:02.587Z,64.91
2023-05-24T18:47:44.135Z,63.85
2023-05-24T18:50:25.385Z,67.03
2023-05-24T18:53:05.610Z,69.91
2023-05-24T18:55:34.043Z,74.25
2023-05-24T18:58:02.144Z,77.77
2023-05-24T19:00:30.291Z,79.73
2023-05-24T19:02:58.911Z,80.58
2023-05-24T19:05:28.237Z,76.61
2023-05-24T19:07:57.761Z,79.92
2023-05-24T19:10:26.336Z,77.04
2023-05-24T19:13:07.046Z,81.67
2023-05-24T19:15:37.154Z,76.28
2023-05-24T19:18:06.362Z,80.84
2023-05-24T19:20:34.555Z,79.99
2023-05-24T19:23:03.404Z,73.89
2023-05-24T19:25:31.720Z,74.94
2023-05-24T19:28:00.980Z,65.95
2023-05-24T19:30:41.870Z,68.96
2023-05-24T19:33:10.077Z,64.88
2023-05-24T19:35:38.820Z,76.05
2023-05-24T19:38:07.016Z,74.89
2023-05-24T19:40:34.977Z,71.69
2023-05-24T19:43:03.683Z,81.04
2023-05-24T19:45:31.865Z,84.90
2023-05-24T19:48:00.007Z,84.63
2023-05-24T19:50:30.617Z,84.36
2023-05-24T19:52:59.474Z,83.11
2023-05-24T19:55:27.529Z,84.22
2023-05-24T19:57:56.021Z,86.61
2023-05-24T20:00:24.216Z,88.58
2023-05-24T20:02:52.960Z,88.07
2023-05-24T20:05:21.520Z,88.12
2023-05-24T20:07:49.478Z,81.05
2023-05-24T20:10:17.877Z,80.78
2023-05-24T20:12:46.049Z,77.16
2023-05-24T20:15:17.714Z,83.08
2023-05-24T20:17:57.119Z,86.44
2023-05-24T20:20:29.137Z,84.73
2023-05-24T20:22:57.709Z,80.79
2023-05-24T20:25:26.093Z,84.45
2023-05-24T20:27:54.857Z,82.71
2023-05-24T20:30:23.639Z,84.46
2023-05-24T20:32:51.766Z,81.68
2023-05-24T20:35:20.063Z,84.09
2023-05-24T20:37:48.535Z,88.22
2023-05-24T20:40:23.372Z,80.43
2023-05-24T20:42:52.526Z,75.57
2023-05-24T20:45:20.723Z,82.83
2023-05-24T20:47:48.899Z,82.99
2023-05-24T20:50:17.342Z,86.18
2023-05-24T20:52:45.471Z,74.29
2023-05-24T20:55:13.574Z,72.01
2023-05-24T20:57:42.131Z,76.90
2023-05-24T21:00:10.537Z,82.84
2023-05-24T21:02:40.315Z,85.86
2023-05-24T21:05:09.340Z,87.91
2023-05-24T21:07:37.507Z,86.69
2023-05-24T21:10:05.865Z,71.41
2023-05-24T21:12:35.154Z,81.32
2023-05-24T21:15:15.457Z,88.79
2023-05-24T21:17:53.152Z,77.83
2023-05-24T21:20:31.744Z,81.84
2023-05-24T21:23:09.327Z,77.33
2023-05-24T21:25:44.837Z,75.39
2023-05-24T21:28:23.344Z,87.89
2023-05-24T21:31:02.219Z,75.58
2023-05-24T21:33:39.922Z,87.50
2023-05-24T21:36:18.372Z,82.84
2023-05-24T21:38:54.480Z,90.48
2023-05-24T21:41:33.457Z,77.35
2023-05-24T21:44:10.322Z,82.20
2023-05-24T21:46:45.009Z,78.54
2023-05-24T21:49:21.448Z,70.17
2023-05-24T21:51:56.359Z,78.08
2023-05-24T21:54:31.941Z,68.83
2023-05-24T21:57:06.134Z,86.17
2023-05-24T21:59:41.750Z,89.24
2023-05-24T22:02:12.372Z,89.39
2023-05-24T22:04:41.163Z,89.32
2023-05-24T22:07:09.315Z,89.98
2023-05-24T22:09:37.440Z,89.35
2023-05-24T22:12:06.561Z,76.09
2023-05-24T22:14:34.769Z,81.42
2023-05-24T22:17:02.823Z,81.97
2023-05-24T22:19:39.624Z,90.01
2023-05-24T22:22:10.304Z,95.05
2023-05-24T22:24:38.653Z,89.92
2023-05-24T22:27:09.936Z,94.13
2023-05-24T22:29:38.335Z,92.99
2023-05-24T22:32:06.672Z,89.70
2023-05-24T22:34:34.772Z,93.84
2023-05-24T22:37:03.081Z,86.59
2023-05-24T22:39:31.451Z,86.10
2023-05-24T22:41:59.421Z,71.52
2023-05-24T22:44:27.862Z,80.33
2023-05-24T22:46:56.704Z,78.32
2023-05-24T22:49:25.335Z,89.00
2023-05-24T22:51:55.687Z,89.03
2023-05-24T22:54:23.745Z,86.03
2023-05-24T22:56:51.905Z,84.02
2023-05-24T22:59:20.534Z,90.09
2023-05-24T23:01:48.759Z,96.06
2023-05-24T23:04:21.294Z,90.32
2023-05-24T23:06:53.459Z,87.58
2023-05-24T23:09:35.239Z,99.75
2023-05-24T23:12:08.213Z,100.00
2023-05-24T23:14:38.925Z,100.00
2023-05-24T23:17:13.747Z,100.00
2023-05-24T23:19:47.592Z,76.09
2023-05-24T23:22:18.816Z,76.21
2023-05-24T23:24:50.240Z,86.72
2023-05-24T23:27:19.044Z,95.40
2023-05-24T23:29:47.540Z,99.71
2023-05-24T23:32:15.852Z,95.33
2023-05-24T23:34:44.302Z,86.20
2023-05-24T23:37:12.511Z,89.91
2023-05-24T23:39:40.519Z,96.66
2023-05-24T23:42:08.911Z,90.69
2023-05-24T23:44:36.940Z,88.56
2023-05-24T23:47:05.241Z,93.71
2023-05-24T23:49:33.825Z,100.00
2023-05-24T23:52:01.861Z,100.00
2023-05-24T23:54:29.836Z,100.00
2023-05-24T23:56:58.260Z,100.00
2023-05-24T23:59:26.728Z,100.00
